createdAt,value
2022-09-25T00:00:10.335Z,10.98
2022-09-25T00:02:40.318Z,10.96
2022-09-25T00:05:08.049Z,10.94
2022-09-25T00:07:44.167Z,10.94
2022-09-25T00:10:12.982Z,10.87
2022-09-25T00:12:41.629Z,10.90
2022-09-25T00:15:11.458Z,10.89
2022-09-25T00:17:43.723Z,10.90
2022-09-25T00:20:13.550Z,10.89
2022-09-25T00:22:48.015Z,10.86
2022-09-25T00:25:16.119Z,10.81
2022-09-25T00:27:46.955Z,10.84
2022-09-25T00:30:15.047Z,10.82
2022-09-25T00:32:43.745Z,10.80
2022-09-25T00:35:10.989Z,10.79
2022-09-25T00:37:39.625Z,10.76
2022-09-25T00:40:09.419Z,10.76
2022-09-25T00:42:37.819Z,10.76
2022-09-25T00:45:20.773Z,10.71
2022-09-25T00:47:59.867Z,10.76
2022-09-25T00:50:38.949Z,10.75
2022-09-25T00:53:17.074Z,10.76
2022-09-25T00:55:47.692Z,10.77
2022-09-25T00:58:20.009Z,10.77
2022-09-25T01:00:50.607Z,10.74
2022-09-25T01:03:19.092Z,10.75
2022-09-25T01:05:49.563Z,10.73
2022-09-25T01:08:38.197Z,10.73
2022-09-25T01:11:06.755Z,10.68
2022-09-25T01:13:34.043Z,10.71
2022-09-25T01:16:18.863Z,10.73
2022-09-25T01:18:59.323Z,10.68
2022-09-25T01:22:05.244Z,10.67
2022-09-25T01:24:43.570Z,10.64
2022-09-25T01:28:05.107Z,10.62
2022-09-25T01:31:02.810Z,10.62
2022-09-25T01:33:49.795Z,10.63
2022-09-25T01:36:28.461Z,10.62
2022-09-25T01:39:35.523Z,10.59
2022-09-25T01:42:31.072Z,10.58
2022-09-25T01:45:04.343Z,10.58
2022-09-25T01:47:52.393Z,10.55
2022-09-25T01:51:02.050Z,10.52
2022-09-25T01:53:39.332Z,10.52
2022-09-25T01:56:16.370Z,10.50
2022-09-25T01:59:10.978Z,10.50
2022-09-25T02:01:49.247Z,10.47
2022-09-25T02:04:26.654Z,10.48
2022-09-25T02:07:16.925Z,10.48
2022-09-25T02:09:56.606Z,10.46
2022-09-25T02:12:34.418Z,10.45
2022-09-25T02:15:31.732Z,10.36
2022-09-25T02:18:42.853Z,10.45
2022-09-25T02:21:22.971Z,10.46
2022-09-25T02:24:07.436Z,10.44
2022-09-25T02:26:39.076Z,10.44
2022-09-25T02:29:11.838Z,10.44
2022-09-25T02:31:52.847Z,10.44
2022-09-25T02:34:23.713Z,10.38
2022-09-25T02:36:52.607Z,10.42
2022-09-25T02:39:26.918Z,10.41
2022-09-25T02:42:14.010Z,10.42
2022-09-25T02:44:59.018Z,10.42
2022-09-25T02:47:48.859Z,10.42
2022-09-25T02:50:43.384Z,10.42
2022-09-25T02:53:53.939Z,10.41
2022-09-25T02:56:51.351Z,10.41
2022-09-25T02:59:28.991Z,10.40
2022-09-25T03:02:12.678Z,10.39
2022-09-25T03:07:29.957Z,10.36
2022-09-25T03:10:04.802Z,10.37
2022-09-25T03:12:41.250Z,10.27
2022-09-25T03:15:18.466Z,10.35
2022-09-25T03:17:48.785Z,10.30
2022-09-25T03:20:19.657Z,10.35
2022-09-25T03:22:49.610Z,10.35
2022-09-25T03:25:16.438Z,10.34
2022-09-25T03:27:50.541Z,10.23
2022-09-25T03:30:17.761Z,10.25
2022-09-25T03:32:55.291Z,10.26
2022-09-25T03:35:28.470Z,10.24
2022-09-25T03:37:57.645Z,10.17
2022-09-25T03:40:32.954Z,10.21
2022-09-25T03:45:33.244Z,10.21
2022-09-25T03:48:20.709Z,10.21
2022-09-25T03:50:53.786Z,10.18
2022-09-25T03:53:23.769Z,10.14
2022-09-25T03:55:51.239Z,10.19
2022-09-25T03:58:21.662Z,10.18
2022-09-25T04:00:54.241Z,10.18
2022-09-25T04:03:30.719Z,10.18
2022-09-25T04:06:26.874Z,10.14
2022-09-25T04:08:54.834Z,10.09
2022-09-25T04:11:33.600Z,10.06
2022-09-25T04:14:08.171Z,10.11
2022-09-25T04:16:44.286Z,10.10
2022-09-25T04:19:34.661Z,10.10
2022-09-25T04:22:05.213Z,10.05
2022-09-25T04:24:51.550Z,10.11
2022-09-25T04:27:37.840Z,10.10
2022-09-25T04:30:11.663Z,10.09
2022-09-25T04:32:57.019Z,10.06
2022-09-25T04:35:23.903Z,10.08
2022-09-25T04:37:50.784Z,10.09
2022-09-25T04:40:17.883Z,10.07
2022-09-25T04:42:44.953Z,10.03
2022-09-25T04:45:13.135Z,10.04
2022-09-25T04:47:40.042Z,9.97
2022-09-25T04:50:07.500Z,10.01
2022-09-25T04:52:34.465Z,9.93
2022-09-25T04:55:01.368Z,9.94
2022-09-25T04:57:56.682Z,9.94
2022-09-25T05:00:18.631Z,9.95
2022-09-25T05:02:46.950Z,9.93
2022-09-25T05:05:15.880Z,9.94
2022-09-25T05:07:53.066Z,9.94
2022-09-25T05:10:21.000Z,9.96
2022-09-25T05:12:48.416Z,9.93
2022-09-25T05:15:15.594Z,9.87
2022-09-25T05:17:42.579Z,9.88
2022-09-25T05:20:09.674Z,9.89
2022-09-25T05:22:36.579Z,9.90
2022-09-25T05:25:04.130Z,9.91
2022-09-25T05:27:34.134Z,9.91
2022-09-25T05:30:01.458Z,9.93
2022-09-25T05:32:28.269Z,9.92
2022-09-25T05:34:55.140Z,9.93
2022-09-25T05:37:21.926Z,9.92
2022-09-25T05:39:48.860Z,9.94
2022-09-25T05:42:19.371Z,9.93
2022-09-25T05:44:46.756Z,9.94
2022-09-25T05:47:13.639Z,9.93
2022-09-25T05:49:40.540Z,9.94
2022-09-25T05:52:07.504Z,9.92
2022-09-25T05:54:34.527Z,9.91
2022-09-25T05:57:01.375Z,9.93
2022-09-25T05:59:28.970Z,9.95
2022-09-25T06:01:55.844Z,9.93
2022-09-25T06:04:22.676Z,9.95
2022-09-25T06:06:49.704Z,9.94
2022-09-25T06:09:16.883Z,9.93
2022-09-25T06:11:47.535Z,9.96
2022-09-25T06:14:14.720Z,9.97
2022-09-25T06:16:41.589Z,9.94
2022-09-25T06:19:08.704Z,9.97
2022-09-25T06:21:35.633Z,9.95
2022-09-25T06:24:02.513Z,9.97
2022-09-25T06:26:29.707Z,9.95
2022-09-25T06:29:02.314Z,9.99
2022-09-25T06:31:30.452Z,10.00
2022-09-25T06:33:57.604Z,10.01
2022-09-25T06:36:24.370Z,10.00
2022-09-25T06:38:54.952Z,9.98
2022-09-25T06:41:22.496Z,9.99
2022-09-25T06:43:52.585Z,9.99
2022-09-25T06:46:20.252Z,9.99
2022-09-25T06:48:54.991Z,9.96
2022-09-25T06:51:23.038Z,9.95
2022-09-25T06:53:53.799Z,9.97
2022-09-25T06:56:21.549Z,9.96
2022-09-25T06:58:48.493Z,9.95
2022-09-25T07:01:17.861Z,9.93
2022-09-25T07:03:44.936Z,9.98
2022-09-25T07:06:20.732Z,9.99
2022-09-25T07:08:49.161Z,10.02
2022-09-25T07:11:28.105Z,10.01
2022-09-25T07:13:55.548Z,10.01
2022-09-25T07:16:25.018Z,10.03
2022-09-25T07:18:57.364Z,10.04
2022-09-25T07:21:25.197Z,10.06
2022-09-25T07:23:52.354Z,10.07
2022-09-25T07:26:30.233Z,10.09
2022-09-25T07:29:00.262Z,10.11
2022-09-25T07:31:29.703Z,10.12
2022-09-25T07:33:59.526Z,10.11
2022-09-25T07:36:26.313Z,10.16
2022-09-25T07:38:54.124Z,10.19
2022-09-25T07:41:22.829Z,10.20
2022-09-25T07:46:45.972Z,10.26
2022-09-25T07:49:13.362Z,10.27
2022-09-25T07:51:40.203Z,10.28
2022-09-25T07:54:07.303Z,10.32
2022-09-25T07:56:34.709Z,10.32
2022-09-25T07:59:01.737Z,10.35
2022-09-25T08:01:28.719Z,10.35
2022-09-25T08:03:55.837Z,10.40
2022-09-25T08:06:22.674Z,10.41
2022-09-25T08:08:49.529Z,10.46
2022-09-25T08:11:17.812Z,10.50
2022-09-25T08:13:45.970Z,10.54
2022-09-25T08:16:15.910Z,10.59
2022-09-25T08:18:46.341Z,10.62
2022-09-25T08:21:15.564Z,10.64
2022-09-25T08:23:47.733Z,10.67
2022-09-25T08:26:20.935Z,10.68
2022-09-25T08:28:48.023Z,10.70
2022-09-25T08:31:15.342Z,10.74
2022-09-25T08:33:46.656Z,10.78
2022-09-25T08:36:13.742Z,10.80
2022-09-25T08:38:40.693Z,10.79
2022-09-25T08:41:10.609Z,10.86
2022-09-25T08:44:22.488Z,10.91
2022-09-25T08:47:23.742Z,10.92
2022-09-25T08:50:18.711Z,10.96
2022-09-25T08:53:03.440Z,11.02
2022-09-25T08:55:59.902Z,11.05
2022-09-25T08:58:33.427Z,11.08
2022-09-25T09:01:08.020Z,11.10
2022-09-25T09:03:54.116Z,11.14
2022-09-25T09:06:24.907Z,11.18
2022-09-25T09:09:01.697Z,11.21
2022-09-25T09:11:52.805Z,11.23
2022-09-25T09:14:21.815Z,11.23
2022-09-25T09:16:57.568Z,11.26
2022-09-25T09:19:24.624Z,11.30
2022-09-25T09:21:57.440Z,11.35
2022-09-25T09:24:35.202Z,11.38
2022-09-25T09:27:18.943Z,11.41
2022-09-25T09:30:05.953Z,11.47
2022-09-25T09:32:36.223Z,11.50
2022-09-25T09:35:14.924Z,11.59
2022-09-25T09:37:45.978Z,11.66
2022-09-25T09:40:19.251Z,11.72
2022-09-25T09:42:59.805Z,11.79
2022-09-25T09:45:48.230Z,11.85
2022-09-25T09:48:25.823Z,11.92
2022-09-25T09:50:59.305Z,11.97
2022-09-25T09:53:51.703Z,12.01
2022-09-25T09:56:25.672Z,12.05
2022-09-25T09:58:58.625Z,12.08
2022-09-25T10:01:40.721Z,12.13
2022-09-25T10:04:10.959Z,12.15
2022-09-25T10:06:43.372Z,12.19
2022-09-25T10:09:15.156Z,12.20
2022-09-25T10:11:45.156Z,12.22
2022-09-25T10:14:21.270Z,12.23
2022-09-25T10:16:51.566Z,12.23
2022-09-25T10:19:24.889Z,12.23
2022-09-25T10:22:07.184Z,12.26
2022-09-25T10:24:52.117Z,12.30
2022-09-25T10:27:46.108Z,12.37
2022-09-25T10:30:20.428Z,12.42
2022-09-25T10:33:14.983Z,12.44
2022-09-25T10:35:43.890Z,12.49
2022-09-25T10:38:31.324Z,12.51
2022-09-25T10:41:04.575Z,12.57
2022-09-25T10:43:31.845Z,12.60
2022-09-25T10:46:50.065Z,12.63
2022-09-25T10:49:46.410Z,12.67
2022-09-25T10:52:15.726Z,12.69
2022-09-25T10:54:45.478Z,12.72
2022-09-25T10:57:38.319Z,12.77
2022-09-25T11:00:20.865Z,12.81
2022-09-25T11:02:51.902Z,12.87
2022-09-25T11:05:24.588Z,12.92
2022-09-25T11:07:55.253Z,12.95
2022-09-25T11:10:26.931Z,12.97
2022-09-25T11:12:54.507Z,12.99
2022-09-25T11:15:24.230Z,13.04
2022-09-25T11:17:54.221Z,13.04
2022-09-25T11:20:29.826Z,13.08
2022-09-25T11:23:22.995Z,13.10
2022-09-25T11:26:10.125Z,13.16
2022-09-25T11:29:14.740Z,13.20
2022-09-25T11:31:52.323Z,13.22
2022-09-25T11:34:52.473Z,13.23
2022-09-25T11:37:27.342Z,13.22
2022-09-25T11:40:41.002Z,13.20
2022-09-25T11:43:21.039Z,13.23
2022-09-25T11:45:57.294Z,13.22
2022-09-25T11:48:54.590Z,13.24
2022-09-25T11:51:55.643Z,13.29
2022-09-25T11:54:56.519Z,13.28
2022-09-25T11:57:49.748Z,13.29
2022-09-25T12:00:21.262Z,13.30
2022-09-25T12:03:01.095Z,13.32
2022-09-25T12:05:52.782Z,13.35
2022-09-25T12:09:04.176Z,13.34
2022-09-25T12:11:43.332Z,13.38
2022-09-25T12:14:14.845Z,13.42
2022-09-25T12:17:09.623Z,13.46
2022-09-25T12:19:48.759Z,13.50
2022-09-25T12:22:40.988Z,13.54
2022-09-25T12:25:47.996Z,13.60
2022-09-25T12:28:37.140Z,13.63
2022-09-25T12:31:16.122Z,13.63
2022-09-25T12:33:57.880Z,13.65
2022-09-25T12:36:38.113Z,13.68
2022-09-25T12:39:26.550Z,13.69
2022-09-25T12:42:06.179Z,13.69
2022-09-25T12:44:53.116Z,13.71
2022-09-25T12:47:33.337Z,13.72
2022-09-25T12:50:30.669Z,13.74
2022-09-25T12:53:11.527Z,13.73
2022-09-25T12:55:44.826Z,13.74
2022-09-25T12:58:35.652Z,13.76
2022-09-25T13:01:14.991Z,13.79
2022-09-25T13:03:47.435Z,13.76
2022-09-25T13:06:23.439Z,13.80
2022-09-25T13:09:03.381Z,13.79
2022-09-25T13:11:57.431Z,13.79
2022-09-25T13:15:09.517Z,13.79
2022-09-25T13:17:38.263Z,13.79
2022-09-25T13:20:27.181Z,13.79
2022-09-25T13:23:16.425Z,13.75
2022-09-25T13:26:09.588Z,13.80
2022-09-25T13:28:48.029Z,13.80
2022-09-25T13:31:27.204Z,13.81
2022-09-25T13:34:00.026Z,13.79
2022-09-25T13:36:26.836Z,13.78
2022-09-25T13:39:22.266Z,13.77
2022-09-25T13:42:00.375Z,13.75
2022-09-25T13:44:50.403Z,13.73
2022-09-25T13:47:29.833Z,13.74
2022-09-25T13:50:10.683Z,13.74
2022-09-25T13:52:40.751Z,13.76
2022-09-25T13:55:13.782Z,13.78
2022-09-25T13:57:58.954Z,13.77
2022-09-25T14:00:38.399Z,13.77
2022-09-25T14:03:05.703Z,13.77
2022-09-25T14:05:37.114Z,13.81
2022-09-25T14:08:12.694Z,13.81
2022-09-25T14:10:49.179Z,13.81
2022-09-25T14:13:23.702Z,13.85
2022-09-25T14:15:51.944Z,13.85
2022-09-25T14:18:36.294Z,13.86
2022-09-25T14:21:07.803Z,13.89
2022-09-25T14:23:47.873Z,13.85
2022-09-25T14:26:24.775Z,13.87
2022-09-25T14:28:53.516Z,13.88
2022-09-25T14:31:32.796Z,13.87
2022-09-25T14:34:37.927Z,13.91
2022-09-25T14:37:39.547Z,13.92
2022-09-25T14:40:25.155Z,13.93
2022-09-25T14:43:07.793Z,13.94
2022-09-25T14:46:10.302Z,13.94
2022-09-25T14:48:48.724Z,13.98
2022-09-25T14:51:34.475Z,13.94
2022-09-25T14:54:06.563Z,14.00
2022-09-25T14:56:35.800Z,14.02
2022-09-25T14:59:13.595Z,14.02
2022-09-25T15:02:03.643Z,14.04
2022-09-25T15:04:33.579Z,14.08
2022-09-25T15:07:14.897Z,14.11
2022-09-25T15:09:50.175Z,14.13
2022-09-25T15:12:34.079Z,14.14
2022-09-25T15:15:07.501Z,14.16
2022-09-25T15:17:44.664Z,14.19
2022-09-25T15:20:15.034Z,14.19
2022-09-25T15:22:47.319Z,14.20
2022-09-25T15:25:23.890Z,14.23
2022-09-25T15:27:50.800Z,14.25
2022-09-25T15:30:20.399Z,14.25
2022-09-25T15:32:57.100Z,14.23
2022-09-25T15:35:28.617Z,14.25
2022-09-25T15:38:13.269Z,14.26
2022-09-25T15:40:41.547Z,14.23
2022-09-25T15:43:16.284Z,14.22
2022-09-25T15:45:58.267Z,14.20
2022-09-25T15:48:33.086Z,14.13
2022-09-25T15:51:12.799Z,14.13
2022-09-25T15:53:44.256Z,14.12
2022-09-25T15:56:19.081Z,14.11
2022-09-25T15:58:50.219Z,14.08
2022-09-25T16:01:40.639Z,14.05
2022-09-25T16:04:28.357Z,14.02
2022-09-25T16:06:55.215Z,13.99
2022-09-25T16:09:30.331Z,13.96
2022-09-25T16:12:35.464Z,13.95
2022-09-25T16:15:26.501Z,13.94
2022-09-25T16:17:55.184Z,13.91
2022-09-25T16:20:24.863Z,13.90
2022-09-25T16:22:59.760Z,13.88
2022-09-25T16:25:33.828Z,13.84
2022-09-25T16:28:08.714Z,13.83
2022-09-25T16:30:36.892Z,13.79
2022-09-25T16:33:28.658Z,13.79
2022-09-25T16:36:12.901Z,13.74
2022-09-25T16:38:57.668Z,13.74
2022-09-25T16:41:25.992Z,13.69
2022-09-25T16:44:14.233Z,13.69
2022-09-25T16:47:07.049Z,13.66
2022-09-25T16:49:34.909Z,13.64
2022-09-25T16:52:06.351Z,13.61
2022-09-25T16:54:33.575Z,13.58
2022-09-25T16:57:02.425Z,13.54
2022-09-25T16:59:30.163Z,13.55
2022-09-25T17:02:00.740Z,13.49
2022-09-25T17:04:30.959Z,13.49
2022-09-25T17:06:58.641Z,13.46
2022-09-25T17:09:28.421Z,13.43
2022-09-25T17:12:08.618Z,13.42
2022-09-25T17:14:36.372Z,13.41
2022-09-25T17:17:03.545Z,13.36
2022-09-25T17:19:30.552Z,13.36
2022-09-25T17:21:58.079Z,13.32
2022-09-25T17:24:26.994Z,13.29
2022-09-25T17:26:54.543Z,13.24
2022-09-25T17:29:22.197Z,13.20
2022-09-25T17:31:49.455Z,13.16
2022-09-25T17:34:28.677Z,13.10
2022-09-25T17:36:57.811Z,13.04
2022-09-25T17:39:24.589Z,13.02
2022-09-25T17:41:51.730Z,12.96
2022-09-25T17:44:22.181Z,12.94
2022-09-25T17:46:53.891Z,12.88
2022-09-25T17:49:20.720Z,12.82
2022-09-25T17:51:47.738Z,12.76
2022-09-25T17:54:14.655Z,12.71
2022-09-25T17:56:45.088Z,12.67
2022-09-25T17:59:12.273Z,12.58
2022-09-25T18:01:40.133Z,12.54
2022-09-25T18:04:18.366Z,12.48
2022-09-25T18:06:45.454Z,12.41
2022-09-25T18:09:12.421Z,12.35
2022-09-25T18:11:43.338Z,12.31
2022-09-25T18:14:12.775Z,12.25
2022-09-25T18:16:41.902Z,12.17
2022-09-25T18:19:38.415Z,12.12
2022-09-25T18:22:19.062Z,12.05
2022-09-25T18:24:56.429Z,12.01
2022-09-25T18:27:30.208Z,12.00
2022-09-25T18:29:57.782Z,11.98
2022-09-25T18:32:24.769Z,11.96
2022-09-25T18:34:52.002Z,11.92
2022-09-25T18:37:18.919Z,11.85
2022-09-25T18:39:48.070Z,11.86
2022-09-25T18:42:15.207Z,11.84
2022-09-25T18:44:43.161Z,11.81
2022-09-25T18:47:11.408Z,11.82
2022-09-25T18:49:38.505Z,11.78
2022-09-25T18:52:05.989Z,11.74
2022-09-25T18:54:32.937Z,11.73
2022-09-25T18:56:59.973Z,11.71
2022-09-25T18:59:26.842Z,11.69
2022-09-25T19:01:55.773Z,11.65
2022-09-25T19:04:23.213Z,11.65
2022-09-25T19:06:50.172Z,11.63
2022-09-25T19:09:17.728Z,11.60
2022-09-25T19:11:45.443Z,11.59
2022-09-25T19:14:12.974Z,11.56
2022-09-25T19:16:39.921Z,11.52
2022-09-25T19:19:07.561Z,11.52
2022-09-25T19:21:35.367Z,11.51
2022-09-25T19:24:03.053Z,11.48
2022-09-25T19:26:30.926Z,11.47
2022-09-25T19:28:57.823Z,11.44
2022-09-25T19:31:26.420Z,11.42
2022-09-25T19:33:55.120Z,11.40
2022-09-25T19:36:30.803Z,11.37
2022-09-25T19:38:59.548Z,11.37
2022-09-25T19:41:29.382Z,11.34
2022-09-25T19:43:59.111Z,11.30
2022-09-25T19:46:27.740Z,11.27
2022-09-25T19:48:55.408Z,11.22
2022-09-25T19:51:23.683Z,11.18
2022-09-25T19:53:51.461Z,11.12
2022-09-25T19:56:19.466Z,11.10
2022-09-25T19:58:50.802Z,11.04
2022-09-25T20:01:27.526Z,10.98
2022-09-25T20:03:58.585Z,10.92
2022-09-25T20:06:26.847Z,10.90
2022-09-25T20:08:58.262Z,10.86
2022-09-25T20:11:25.823Z,10.83
2022-09-25T20:13:54.128Z,10.77
2022-09-25T20:16:25.123Z,10.74
2022-09-25T20:18:58.029Z,10.70
2022-09-25T20:21:26.259Z,10.65
2022-09-25T20:23:55.559Z,10.60
2022-09-25T20:26:26.114Z,10.58
2022-09-25T20:28:55.503Z,10.54
2022-09-25T20:31:22.978Z,10.52
2022-09-25T20:33:50.374Z,10.36
2022-09-25T20:36:24.889Z,10.37
2022-09-25T20:38:53.943Z,10.38
2022-09-25T20:41:22.332Z,10.34
2022-09-25T20:44:11.000Z,10.28
2022-09-25T20:46:42.297Z,10.19
2022-09-25T20:49:17.894Z,10.13
2022-09-25T20:51:47.424Z,10.10
2022-09-25T20:54:15.957Z,10.08
2022-09-25T20:56:46.316Z,10.05
2022-09-25T20:59:15.456Z,10.03
2022-09-25T21:01:44.247Z,10.00
2022-09-25T21:04:12.691Z,9.94
2022-09-25T21:06:46.285Z,9.88
2022-09-25T21:09:26.196Z,9.90
2022-09-25T21:11:55.040Z,9.78
2022-09-25T21:14:29.335Z,9.83
2022-09-25T21:16:56.406Z,9.80
2022-09-25T21:19:31.356Z,9.76
2022-09-25T21:21:58.451Z,9.69
2022-09-25T21:24:30.275Z,9.66
2022-09-25T21:27:01.647Z,9.68
2022-09-25T21:29:32.714Z,9.60
2022-09-25T21:32:07.199Z,9.62
2022-09-25T21:34:38.214Z,9.57
2022-09-25T21:37:06.649Z,9.57
2022-09-25T21:39:34.536Z,9.53
2022-09-25T21:42:03.172Z,9.48
2022-09-25T21:44:30.212Z,9.48
2022-09-25T21:46:57.049Z,9.47
2022-09-25T21:49:27.156Z,9.44
2022-09-25T21:51:54.325Z,9.41
2022-09-25T21:54:23.433Z,9.38
2022-09-25T21:56:53.629Z,9.41
2022-09-25T21:59:20.571Z,9.41
2022-09-25T22:01:49.504Z,9.39
2022-09-25T22:04:16.680Z,9.39
2022-09-25T22:06:47.053Z,9.35
2022-09-25T22:09:32.056Z,9.36
2022-09-25T22:12:04.070Z,9.34
2022-09-25T22:14:37.346Z,9.31
2022-09-25T22:17:04.332Z,9.28
2022-09-25T22:19:33.593Z,9.27
2022-09-25T22:22:07.533Z,9.27
2022-09-25T22:24:43.501Z,9.25
2022-09-25T22:27:10.561Z,9.21
2022-09-25T22:29:39.704Z,9.21
2022-09-25T22:32:11.346Z,9.18
2022-09-25T22:34:38.444Z,9.18
2022-09-25T22:37:06.503Z,9.17
2022-09-25T22:39:41.831Z,9.15
2022-09-25T22:42:08.770Z,9.11
2022-09-25T22:44:38.458Z,9.10
2022-09-25T22:47:05.474Z,9.04
2022-09-25T22:49:33.772Z,9.04
2022-09-25T22:52:05.326Z,9.03
2022-09-25T22:54:36.907Z,9.00
2022-09-25T22:57:06.940Z,8.99
2022-09-25T22:59:36.043Z,8.96
2022-09-25T23:02:04.552Z,8.94
2022-09-25T23:04:34.530Z,8.91
2022-09-25T23:07:03.366Z,8.90
2022-09-25T23:09:38.218Z,8.88
2022-09-25T23:12:09.426Z,8.88
2022-09-25T23:14:45.583Z,8.86
2022-09-25T23:17:14.585Z,8.83
2022-09-25T23:20:01.800Z,8.82
2022-09-25T23:22:36.094Z,8.80
2022-09-25T23:25:04.804Z,8.78
2022-09-25T23:27:37.370Z,8.78
2022-09-25T23:30:08.090Z,8.76
2022-09-25T23:35:22.770Z,8.76
2022-09-25T23:37:55.579Z,8.75
2022-09-25T23:40:28.807Z,8.75
2022-09-25T23:43:12.984Z,8.75
2022-09-25T23:45:45.869Z,8.75
2022-09-25T23:48:18.249Z,8.73
2022-09-25T23:50:54.999Z,8.72
2022-09-25T23:53:25.825Z,8.72
2022-09-25T23:55:56.884Z,8.71
2022-09-25T23:58:36.421Z,8.70
